createdAt,value
2019-05-20T00:00:16.511Z,13.00
2019-05-20T00:02:46.301Z,12.89
2019-05-20T00:05:15.847Z,12.89
2019-05-20T00:07:45.270Z,12.85
2019-05-20T00:10:14.969Z,12.76
2019-05-20T00:12:44.486Z,12.73
2019-05-20T00:15:14.099Z,12.69
2019-05-20T00:17:43.556Z,12.67
2019-05-20T00:20:13.346Z,12.70
2019-05-20T00:22:42.913Z,12.66
2019-05-20T00:25:12.511Z,12.64
2019-05-20T00:27:42.125Z,12.68
2019-05-20T00:30:12.076Z,12.78
2019-05-20T00:32:42.562Z,12.80
2019-05-20T00:35:12.334Z,12.77
2019-05-20T00:37:41.806Z,12.69
2019-05-20T00:40:11.784Z,12.68
2019-05-20T00:42:41.294Z,12.64
2019-05-20T00:45:11.737Z,12.59
2019-05-20T00:47:41.428Z,12.55
2019-05-20T00:50:12.838Z,12.52
2019-05-20T00:52:42.498Z,12.51
2019-05-20T00:55:17.825Z,12.49
2019-05-20T00:57:47.267Z,12.48
2019-05-20T01:00:17.064Z,12.43
2019-05-20T01:02:56.361Z,12.40
2019-05-20T01:05:17.927Z,12.37
2019-05-20T01:07:47.420Z,12.34
2019-05-20T01:10:17.187Z,12.30
2019-05-20T01:12:46.651Z,12.23
2019-05-20T01:15:16.546Z,12.20
2019-05-20T01:17:46.004Z,12.10
2019-05-20T01:20:15.735Z,12.01
2019-05-20T01:22:45.327Z,11.97
2019-05-20T01:25:15.483Z,11.87
2019-05-20T01:27:44.934Z,11.76
2019-05-20T01:30:16.433Z,11.68
2019-05-20T01:32:46.047Z,11.60
2019-05-20T01:35:15.588Z,11.56
2019-05-20T01:37:45.048Z,11.46
2019-05-20T01:40:15.057Z,11.38
2019-05-20T01:42:44.567Z,11.32
2019-05-20T01:45:14.191Z,11.22
2019-05-20T01:47:43.835Z,11.19
2019-05-20T01:50:13.588Z,11.39
2019-05-20T01:52:43.210Z,11.42
2019-05-20T01:55:13.393Z,11.43
2019-05-20T01:57:42.884Z,11.22
2019-05-20T02:00:14.223Z,11.20
2019-05-20T02:02:43.735Z,11.02
2019-05-20T02:05:13.617Z,11.04
2019-05-20T02:07:43.073Z,11.12
2019-05-20T02:10:12.983Z,11.23
2019-05-20T02:12:43.942Z,11.24
2019-05-20T02:15:31.660Z,11.25
2019-05-20T02:18:01.112Z,11.23
2019-05-20T02:20:32.274Z,11.27
2019-05-20T02:23:14.868Z,11.26
2019-05-20T02:25:49.411Z,11.20
2019-05-20T02:28:18.913Z,11.22
2019-05-20T02:30:48.497Z,11.26
2019-05-20T02:33:17.943Z,11.31
2019-05-20T02:35:47.451Z,11.34
2019-05-20T02:38:17.150Z,11.13
2019-05-20T02:40:46.735Z,11.01
2019-05-20T02:43:16.691Z,10.94
2019-05-20T02:45:46.114Z,10.92
2019-05-20T02:48:15.669Z,10.90
2019-05-20T02:50:45.192Z,10.96
2019-05-20T02:53:15.650Z,11.07
2019-05-20T02:55:45.178Z,11.11
2019-05-20T02:58:14.802Z,11.08
2019-05-20T03:00:44.304Z,11.03
2019-05-20T03:03:13.768Z,10.99
2019-05-20T03:05:43.457Z,10.93
2019-05-20T03:08:13.029Z,10.89
2019-05-20T03:10:42.789Z,10.93
2019-05-20T03:13:12.222Z,11.02
2019-05-20T03:15:41.744Z,11.12
2019-05-20T03:18:11.174Z,11.21
2019-05-20T03:20:40.730Z,11.28
2019-05-20T03:23:10.247Z,11.32
2019-05-20T03:25:40.098Z,11.27
2019-05-20T03:28:09.549Z,11.23
2019-05-20T03:30:39.063Z,11.22
2019-05-20T03:33:08.522Z,11.31
2019-05-20T03:35:37.971Z,11.26
2019-05-20T03:38:07.424Z,11.29
2019-05-20T03:40:36.913Z,11.27
2019-05-20T03:43:06.446Z,11.33
2019-05-20T03:45:35.896Z,11.38
2019-05-20T03:48:05.440Z,11.43
2019-05-20T03:50:35.818Z,11.38
2019-05-20T03:53:05.341Z,11.35
2019-05-20T03:55:36.322Z,11.36
2019-05-20T03:58:05.761Z,11.38
2019-05-20T04:00:48.247Z,11.49
2019-05-20T04:03:17.745Z,11.54
2019-05-20T04:05:47.239Z,11.59
2019-05-20T04:08:16.850Z,11.60
2019-05-20T04:10:47.095Z,11.45
2019-05-20T04:13:16.548Z,11.38
2019-05-20T04:15:46.066Z,11.28
2019-05-20T04:18:15.514Z,11.31
2019-05-20T04:20:44.923Z,11.39
2019-05-20T04:23:14.401Z,11.58
2019-05-20T04:25:43.855Z,11.80
2019-05-20T04:28:13.380Z,12.00
2019-05-20T04:30:42.810Z,12.15
2019-05-20T04:33:12.246Z,12.32
2019-05-20T04:35:41.742Z,12.60
2019-05-20T04:38:11.361Z,12.78
2019-05-20T04:40:41.414Z,13.05
2019-05-20T04:43:14.065Z,13.22
2019-05-20T04:45:43.587Z,13.29
2019-05-20T04:48:14.053Z,13.33
2019-05-20T04:50:43.852Z,13.35
2019-05-20T04:53:13.298Z,13.43
2019-05-20T04:55:42.755Z,13.44
2019-05-20T04:58:12.223Z,13.48
2019-05-20T05:00:50.721Z,13.51
2019-05-20T05:03:20.253Z,13.61
2019-05-20T05:05:51.144Z,13.68
2019-05-20T05:08:21.422Z,13.76
2019-05-20T05:10:51.589Z,13.84
2019-05-20T05:13:21.590Z,13.91
2019-05-20T05:15:51.273Z,13.98
2019-05-20T05:18:21.233Z,13.97
2019-05-20T05:20:50.742Z,13.97
2019-05-20T05:23:20.606Z,13.95
2019-05-20T05:25:50.302Z,14.08
2019-05-20T05:28:19.734Z,14.11
2019-05-20T05:30:49.454Z,14.14
2019-05-20T05:33:21.919Z,14.19
2019-05-20T05:35:53.664Z,14.27
2019-05-20T05:38:23.642Z,14.36
2019-05-20T05:40:53.309Z,14.34
2019-05-20T05:43:22.723Z,14.32
2019-05-20T05:45:52.375Z,14.40
2019-05-20T05:48:21.845Z,14.33
2019-05-20T05:50:51.278Z,14.32
2019-05-20T05:53:20.911Z,14.33
2019-05-20T05:55:50.442Z,14.40
2019-05-20T05:58:19.865Z,14.44
2019-05-20T06:00:49.299Z,14.38
2019-05-20T06:03:18.760Z,14.43
2019-05-20T06:05:48.196Z,14.41
2019-05-20T06:08:17.614Z,14.43
2019-05-20T06:10:47.059Z,14.41
2019-05-20T06:13:16.597Z,14.43
2019-05-20T06:15:46.127Z,14.48
2019-05-20T06:18:15.608Z,14.56
2019-05-20T06:20:45.363Z,14.61
2019-05-20T06:23:14.788Z,14.60
2019-05-20T06:25:44.260Z,14.62
2019-05-20T06:28:13.722Z,14.69
2019-05-20T06:30:45.111Z,14.59
2019-05-20T06:33:14.955Z,14.51
2019-05-20T06:35:44.757Z,14.41
2019-05-20T06:38:34.209Z,14.52
2019-05-20T06:41:04.689Z,14.62
2019-05-20T06:43:34.167Z,14.80
2019-05-20T06:46:03.854Z,14.73
2019-05-20T06:48:33.290Z,14.76
2019-05-20T06:51:02.754Z,14.74
2019-05-20T06:53:32.183Z,14.51
2019-05-20T06:56:01.797Z,14.48
2019-05-20T06:58:31.210Z,14.49
2019-05-20T07:01:00.747Z,14.58
2019-05-20T07:03:31.582Z,14.60
2019-05-20T07:06:02.851Z,14.39
2019-05-20T07:08:32.318Z,14.32
2019-05-20T07:11:01.998Z,14.43
2019-05-20T07:13:31.412Z,14.60
2019-05-20T07:16:00.868Z,14.57
2019-05-20T07:18:30.605Z,14.79
2019-05-20T07:21:01.543Z,15.05
2019-05-20T07:23:31.292Z,15.03
2019-05-20T07:26:02.360Z,14.95
2019-05-20T07:28:31.795Z,14.99
2019-05-20T07:31:01.978Z,14.92
2019-05-20T07:33:31.396Z,15.14
2019-05-20T07:36:00.868Z,15.19
2019-05-20T07:38:30.281Z,15.14
2019-05-20T07:40:59.802Z,15.35
2019-05-20T07:43:29.496Z,15.48
2019-05-20T07:46:00.453Z,15.56
2019-05-20T07:48:31.104Z,15.62
2019-05-20T07:51:02.633Z,15.56
2019-05-20T07:53:33.547Z,15.51
2019-05-20T07:56:08.953Z,15.41
2019-05-20T07:58:41.105Z,15.36
2019-05-20T08:01:10.714Z,15.42
2019-05-20T08:03:40.134Z,15.54
2019-05-20T08:06:09.823Z,15.52
2019-05-20T08:08:39.416Z,15.76
2019-05-20T08:11:09.063Z,15.70
2019-05-20T08:13:38.608Z,15.82
2019-05-20T08:16:08.028Z,16.17
2019-05-20T08:18:37.578Z,16.06
2019-05-20T08:21:07.084Z,16.06
2019-05-20T08:23:36.732Z,15.90
2019-05-20T08:26:06.307Z,15.87
2019-05-20T08:28:35.941Z,15.56
2019-05-20T08:31:06.908Z,15.56
2019-05-20T08:33:36.513Z,15.70
2019-05-20T08:36:06.129Z,15.33
2019-05-20T08:38:35.544Z,15.47
2019-05-20T08:41:05.217Z,15.25
2019-05-20T08:43:34.701Z,14.98
2019-05-20T08:46:04.497Z,14.95
2019-05-20T08:48:33.907Z,15.03
2019-05-20T08:51:03.441Z,15.15
2019-05-20T08:53:32.855Z,15.02
2019-05-20T08:56:03.098Z,15.12
2019-05-20T08:58:32.519Z,15.20
2019-05-20T09:01:03.936Z,15.11
2019-05-20T09:03:33.483Z,15.26
2019-05-20T09:06:03.026Z,15.13
2019-05-20T09:08:32.600Z,15.27
2019-05-20T09:11:02.057Z,15.28
2019-05-20T09:13:31.499Z,15.26
2019-05-20T09:16:01.022Z,15.25
2019-05-20T09:18:30.464Z,15.23
2019-05-20T09:21:01.357Z,15.28
2019-05-20T09:23:31.036Z,15.36
2019-05-20T09:26:00.581Z,15.13
2019-05-20T09:28:30.021Z,15.15
2019-05-20T09:31:00.269Z,15.25
2019-05-20T09:33:31.344Z,15.15
2019-05-20T09:36:03.023Z,15.08
2019-05-20T09:38:32.736Z,14.96
2019-05-20T09:41:02.214Z,14.97
2019-05-20T09:43:31.638Z,14.80
2019-05-20T09:46:07.636Z,14.79
2019-05-20T09:48:32.594Z,14.81
2019-05-20T09:51:02.061Z,14.80
2019-05-20T09:53:31.579Z,15.07
2019-05-20T09:56:01.035Z,15.03
2019-05-20T09:58:30.504Z,15.19
2019-05-20T10:00:59.959Z,15.22
2019-05-20T10:03:29.384Z,15.15
2019-05-20T10:05:58.859Z,15.21
2019-05-20T10:08:39.095Z,15.20
2019-05-20T10:11:00.287Z,14.98
2019-05-20T10:13:31.049Z,14.90
2019-05-20T10:16:00.486Z,14.82
2019-05-20T10:18:37.478Z,14.70
2019-05-20T10:21:01.999Z,14.61
2019-05-20T10:23:31.562Z,14.69
2019-05-20T10:26:01.106Z,14.75
2019-05-20T10:28:30.552Z,14.74
2019-05-20T10:31:00.012Z,14.98
2019-05-20T10:33:29.528Z,15.12
2019-05-20T10:35:58.936Z,15.07
2019-05-20T10:38:28.388Z,15.12
2019-05-20T10:40:57.991Z,14.96
2019-05-20T10:43:27.550Z,15.00
2019-05-20T10:45:57.004Z,15.19
2019-05-20T10:48:26.480Z,15.09
2019-05-20T10:50:55.922Z,15.42
2019-05-20T10:53:28.323Z,15.50
2019-05-20T10:55:56.951Z,15.47
2019-05-20T10:58:26.663Z,15.48
2019-05-20T11:01:02.647Z,15.40
2019-05-20T11:03:27.311Z,15.15
2019-05-20T11:05:56.751Z,15.09
2019-05-20T11:08:26.288Z,15.15
2019-05-20T11:10:55.901Z,15.26
2019-05-20T11:13:25.310Z,15.35
2019-05-20T11:15:57.829Z,15.26
2019-05-20T11:18:27.385Z,15.23
2019-05-20T11:20:56.848Z,15.45
2019-05-20T11:23:26.290Z,15.69
2019-05-20T11:25:55.718Z,15.98
2019-05-20T11:28:25.167Z,15.87
2019-05-20T11:30:54.615Z,15.84
2019-05-20T11:33:24.064Z,16.38
2019-05-20T11:35:53.520Z,16.55
2019-05-20T11:38:22.960Z,16.87
2019-05-20T11:40:52.403Z,16.97
2019-05-20T11:43:23.611Z,16.70
2019-05-20T11:45:53.055Z,17.13
2019-05-20T11:48:22.643Z,17.40
2019-05-20T11:50:52.316Z,17.40
2019-05-20T11:53:21.987Z,17.23
2019-05-20T11:55:51.607Z,16.89
2019-05-20T11:58:22.918Z,16.89
2019-05-20T12:00:52.622Z,17.75
2019-05-20T12:03:22.356Z,17.75
2019-05-20T12:05:51.826Z,17.44
2019-05-20T12:08:21.448Z,17.75
2019-05-20T12:10:50.886Z,17.70
2019-05-20T12:13:20.411Z,18.07
2019-05-20T12:15:50.009Z,18.54
2019-05-20T12:18:19.628Z,18.42
2019-05-20T12:20:49.667Z,18.67
2019-05-20T12:23:19.205Z,18.25
2019-05-20T12:25:48.763Z,18.46
2019-05-20T12:28:18.213Z,18.48
2019-05-20T12:30:47.689Z,18.28
2019-05-20T12:33:19.331Z,18.30
2019-05-20T12:35:48.303Z,18.49
2019-05-20T12:38:17.743Z,18.20
2019-05-20T12:40:47.202Z,18.22
2019-05-20T12:43:16.655Z,17.98
2019-05-20T12:45:46.133Z,18.15
2019-05-20T12:48:17.172Z,18.19
2019-05-20T12:50:46.613Z,17.83
2019-05-20T12:53:16.121Z,18.22
2019-05-20T12:55:45.573Z,18.20
2019-05-20T12:58:16.043Z,18.37
2019-05-20T13:00:45.606Z,18.00
2019-05-20T13:03:16.559Z,17.79
2019-05-20T13:05:46.282Z,18.12
2019-05-20T13:08:15.702Z,18.05
2019-05-20T13:10:45.184Z,17.46
2019-05-20T13:13:14.763Z,17.46
2019-05-20T13:15:44.207Z,17.13
2019-05-20T13:18:13.622Z,16.89
2019-05-20T13:20:43.686Z,16.76
2019-05-20T13:23:14.850Z,17.11
2019-05-20T13:25:44.394Z,17.11
2019-05-20T13:28:13.970Z,17.11
2019-05-20T13:30:43.406Z,16.93
2019-05-20T13:33:12.888Z,16.97
2019-05-20T13:35:42.350Z,16.83
2019-05-20T13:38:11.731Z,16.59
2019-05-20T13:40:46.415Z,17.15
2019-05-20T13:43:12.359Z,16.94
2019-05-20T13:45:41.801Z,17.25
2019-05-20T13:48:11.250Z,17.21
2019-05-20T13:50:41.213Z,17.11
2019-05-20T13:53:10.697Z,16.80
2019-05-20T13:55:40.147Z,16.75
2019-05-20T13:58:09.594Z,16.75
2019-05-20T14:00:39.106Z,16.87
2019-05-20T14:03:08.557Z,16.87
2019-05-20T14:05:38.754Z,16.76
2019-05-20T14:08:08.285Z,16.76
2019-05-20T14:10:37.719Z,17.17
2019-05-20T14:13:07.224Z,16.96
2019-05-20T14:15:36.677Z,16.87
2019-05-20T14:18:06.144Z,16.93
2019-05-20T14:20:35.585Z,16.76
2019-05-20T14:23:04.996Z,16.67
2019-05-20T14:25:34.678Z,16.62
2019-05-20T14:28:04.167Z,16.28
2019-05-20T14:30:33.679Z,16.20
2019-05-20T14:33:03.209Z,16.52
2019-05-20T14:35:32.927Z,16.52
2019-05-20T14:38:02.312Z,16.61
2019-05-20T14:40:31.773Z,16.53
2019-05-20T14:43:01.212Z,16.47
2019-05-20T14:45:30.679Z,16.39
2019-05-20T14:48:00.255Z,16.20
2019-05-20T14:50:29.697Z,16.28
2019-05-20T14:52:59.322Z,16.04
2019-05-20T14:55:28.923Z,15.94
2019-05-20T14:57:58.324Z,15.88
2019-05-20T15:00:27.769Z,15.79
2019-05-20T15:02:57.917Z,15.87
2019-05-20T15:05:27.461Z,15.96
2019-05-20T15:07:56.927Z,15.93
2019-05-20T15:10:27.744Z,16.11
2019-05-20T15:12:57.204Z,16.28
2019-05-20T15:15:28.322Z,16.16
2019-05-20T15:17:57.846Z,16.46
2019-05-20T15:20:27.256Z,16.10
2019-05-20T15:22:56.775Z,16.00
2019-05-20T15:25:26.320Z,15.71
2019-05-20T15:27:56.065Z,15.89
2019-05-20T15:30:25.556Z,15.70
2019-05-20T15:32:55.161Z,15.88
2019-05-20T15:35:26.200Z,15.71
2019-05-20T15:37:55.647Z,16.02
2019-05-20T15:40:25.236Z,15.82
2019-05-20T15:42:54.767Z,15.64
2019-05-20T15:45:24.178Z,15.57
2019-05-20T15:47:53.823Z,15.54
2019-05-20T15:50:23.392Z,15.65
2019-05-20T15:52:53.428Z,15.60
2019-05-20T15:55:22.838Z,15.66
2019-05-20T15:57:52.267Z,15.67
2019-05-20T16:00:21.844Z,15.51
2019-05-20T16:02:51.441Z,15.61
2019-05-20T16:05:20.854Z,15.64
2019-05-20T16:07:50.445Z,15.39
2019-05-20T16:10:19.862Z,15.36
2019-05-20T16:12:49.322Z,15.49
2019-05-20T16:15:18.858Z,15.68
2019-05-20T16:17:48.839Z,15.67
2019-05-20T16:20:19.336Z,15.37
2019-05-20T16:22:48.986Z,15.36
2019-05-20T16:25:20.028Z,15.05
2019-05-20T16:27:49.474Z,15.03
2019-05-20T16:30:19.210Z,15.09
2019-05-20T16:32:48.709Z,15.09
2019-05-20T16:35:18.128Z,15.14
2019-05-20T16:37:47.573Z,15.21
2019-05-20T16:40:17.270Z,15.20
2019-05-20T16:42:46.714Z,15.09
2019-05-20T16:45:16.472Z,15.05
2019-05-20T16:47:45.914Z,15.04
2019-05-20T16:50:16.479Z,15.10
2019-05-20T16:52:45.981Z,15.03
2019-05-20T16:55:15.898Z,14.99
2019-05-20T16:57:45.352Z,14.93
2019-05-20T17:00:30.628Z,15.16
2019-05-20T17:02:48.227Z,15.03
2019-05-20T17:05:17.767Z,15.17
2019-05-20T17:07:47.235Z,15.13
2019-05-20T17:10:17.775Z,15.22
2019-05-20T17:12:47.224Z,15.26
2019-05-20T17:15:18.249Z,15.19
2019-05-20T17:17:47.682Z,15.37
2019-05-20T17:20:17.375Z,15.38
2019-05-20T17:22:48.369Z,15.11
2019-05-20T17:25:17.873Z,14.92
2019-05-20T17:27:48.273Z,15.00
2019-05-20T17:30:17.942Z,15.04
2019-05-20T17:32:47.518Z,15.00
2019-05-20T17:35:18.733Z,14.99
2019-05-20T17:37:48.207Z,14.85
2019-05-20T17:40:19.063Z,14.79
2019-05-20T17:42:48.522Z,14.70
2019-05-20T17:45:18.424Z,14.72
2019-05-20T17:47:47.857Z,14.72
2019-05-20T17:50:18.943Z,14.83
2019-05-20T17:52:48.355Z,14.69
2019-05-20T17:55:19.647Z,14.42
2019-05-20T17:57:49.426Z,14.50
2019-05-20T18:00:20.764Z,14.56
2019-05-20T18:02:50.270Z,14.43
2019-05-20T18:05:19.716Z,14.54
2019-05-20T18:07:49.332Z,14.50
2019-05-20T18:10:20.573Z,14.51
2019-05-20T18:12:49.978Z,14.38
2019-05-20T18:15:19.772Z,14.41
2019-05-20T18:17:49.203Z,14.38
2019-05-20T18:20:18.878Z,14.29
2019-05-20T18:22:48.478Z,14.29
2019-05-20T18:25:17.945Z,14.24
2019-05-20T18:27:47.431Z,14.21
2019-05-20T18:30:17.266Z,14.25
2019-05-20T18:32:46.681Z,14.30
2019-05-20T18:35:17.841Z,14.29
2019-05-20T18:37:47.281Z,14.20
2019-05-20T18:40:17.079Z,14.15
2019-05-20T18:42:46.493Z,14.16
2019-05-20T18:45:16.080Z,14.21
2019-05-20T18:47:45.512Z,14.09
2019-05-20T18:50:15.672Z,14.11
2019-05-20T18:52:46.775Z,14.11
2019-05-20T18:55:16.319Z,14.09
2019-05-20T18:57:45.783Z,14.05
2019-05-20T19:00:17.039Z,14.02
2019-05-20T19:02:46.471Z,14.08
2019-05-20T19:05:17.614Z,14.14
2019-05-20T19:07:48.965Z,14.13
2019-05-20T19:10:19.381Z,13.95
2019-05-20T19:12:49.564Z,14.00
2019-05-20T19:15:19.534Z,14.02
2019-05-20T19:17:49.333Z,13.89
2019-05-20T19:20:18.874Z,13.89
2019-05-20T19:22:48.329Z,13.86
2019-05-20T19:25:17.793Z,13.82
2019-05-20T19:27:47.329Z,13.76
2019-05-20T19:30:16.884Z,13.88
2019-05-20T19:32:46.333Z,13.90
2019-05-20T19:35:15.870Z,13.87
2019-05-20T19:37:45.297Z,13.80
2019-05-20T19:40:16.854Z,13.76
2019-05-20T19:42:46.272Z,13.77
2019-05-20T19:45:16.026Z,13.65
2019-05-20T19:47:45.439Z,13.75
2019-05-20T19:50:15.188Z,13.57
2019-05-20T19:52:47.851Z,13.52
2019-05-20T19:55:18.940Z,13.44
2019-05-20T19:57:48.600Z,13.34
2019-05-20T20:00:20.046Z,13.30
2019-05-20T20:02:49.480Z,13.31
2019-05-20T20:05:18.964Z,13.25
2019-05-20T20:07:48.488Z,13.38
2019-05-20T20:10:18.042Z,13.36
2019-05-20T20:12:47.519Z,13.34
2019-05-20T20:15:19.685Z,13.41
2019-05-20T20:17:49.293Z,13.37
2019-05-20T20:20:18.774Z,13.31
2019-05-20T20:22:48.285Z,13.34
2019-05-20T20:25:17.786Z,13.38
2019-05-20T20:27:47.306Z,13.45
2019-05-20T20:30:17.090Z,13.42
2019-05-20T20:32:46.587Z,13.37
2019-05-20T20:35:17.824Z,13.44
2019-05-20T20:37:47.305Z,13.44
2019-05-20T20:40:16.924Z,13.26
2019-05-20T20:42:46.356Z,13.25
2019-05-20T20:45:15.836Z,13.15
2019-05-20T20:47:48.130Z,13.25
2019-05-20T20:50:17.631Z,13.20
2019-05-20T20:52:47.077Z,13.19
2019-05-20T20:55:16.585Z,13.05
2019-05-20T20:57:46.100Z,12.95
2019-05-20T21:00:16.350Z,13.02
2019-05-20T21:02:53.201Z,12.97
2019-05-20T21:05:18.715Z,12.79
2019-05-20T21:07:51.652Z,12.65
2019-05-20T21:10:19.445Z,12.38
2019-05-20T21:12:48.885Z,12.29
2019-05-20T21:15:18.653Z,12.23
2019-05-20T21:17:48.285Z,12.34
2019-05-20T21:20:17.958Z,12.35
2019-05-20T21:22:47.455Z,12.47
2019-05-20T21:25:17.036Z,12.39
2019-05-20T21:27:46.505Z,12.38
2019-05-20T21:30:16.068Z,12.42
2019-05-20T21:32:45.529Z,12.42
2019-05-20T21:35:14.971Z,12.36
2019-05-20T21:37:44.446Z,12.41
2019-05-20T21:40:13.864Z,12.36
2019-05-20T21:42:44.865Z,12.46
2019-05-20T21:45:14.376Z,12.43
2019-05-20T21:47:44.880Z,12.50
2019-05-20T21:50:14.640Z,12.46
2019-05-20T21:52:44.266Z,12.53
2019-05-20T21:55:14.046Z,12.46
2019-05-20T21:57:45.265Z,12.52
2019-05-20T22:00:22.807Z,12.42
2019-05-20T22:02:52.388Z,12.38
2019-05-20T22:05:22.042Z,12.33
2019-05-20T22:07:51.478Z,12.41
2019-05-20T22:10:21.002Z,12.43
2019-05-20T22:12:52.053Z,12.41
2019-05-20T22:15:21.500Z,12.33
2019-05-20T22:17:52.559Z,12.30
2019-05-20T22:20:22.010Z,12.13
2019-05-20T22:22:53.086Z,12.06
2019-05-20T22:25:22.624Z,12.15
2019-05-20T22:27:52.018Z,12.31
2019-05-20T22:30:23.045Z,12.39
2019-05-20T22:32:52.467Z,12.43
2019-05-20T22:35:22.096Z,12.44
2019-05-20T22:37:51.501Z,12.51
2019-05-20T22:40:20.949Z,12.54
2019-05-20T22:42:50.353Z,12.51
2019-05-20T22:45:19.786Z,12.51
2019-05-20T22:47:49.443Z,12.46
2019-05-20T22:50:18.918Z,12.52
2019-05-20T22:52:48.338Z,12.43
2019-05-20T22:55:17.927Z,12.41
2019-05-20T22:57:47.405Z,12.41
2019-05-20T23:00:17.172Z,12.37
2019-05-20T23:02:46.707Z,12.40
2019-05-20T23:05:16.222Z,12.40
2019-05-20T23:07:45.705Z,12.39
2019-05-20T23:10:15.854Z,12.42
2019-05-20T23:12:45.271Z,12.41
2019-05-20T23:15:14.851Z,12.42
2019-05-20T23:17:44.299Z,12.47
2019-05-20T23:20:14.146Z,12.54
2019-05-20T23:22:43.678Z,12.55
2019-05-20T23:25:13.866Z,12.56
2019-05-20T23:27:43.456Z,12.54
2019-05-20T23:30:13.507Z,12.50
2019-05-20T23:32:42.967Z,12.51
2019-05-20T23:35:12.607Z,12.53
2019-05-20T23:37:42.240Z,12.74
2019-05-20T23:40:11.839Z,12.55
2019-05-20T23:42:41.295Z,12.59
2019-05-20T23:45:11.144Z,12.43
2019-05-20T23:47:40.653Z,12.38
2019-05-20T23:50:10.709Z,12.39
2019-05-20T23:52:40.286Z,12.35
2019-05-20T23:55:11.137Z,12.41
2019-05-20T23:57:40.580Z,12.46
